Time;durP1;ratioP1;P1;durP2;ratioP2;P2;SDS_P1;SDS_P2;PMS_P1;PMS_P2;Temp;Humidity;BMP_temperature;BMP_pressure;BME280_temperature;BME280_humidity;BME280_pressure;Samples;Min_cycle;Max_cycle;Signal;HPM_P1;HPM_P2
2020/12/18 00:01:20;;;;;;;19.77;13.30;;;3.30;99.90;;;1.36;100.00;101259.41;5025564;27;100468;-60
2020/12/18 00:03:47;;;;;;;24.60;15.77;;;3.20;99.90;;;1.39;100.00;101261.88;5027048;27;100214;-63
2020/12/18 00:06:15;;;;;;;19.50;12.70;;;3.10;99.90;;;1.28;100.00;101267.66;5024913;27;99870;-63
2020/12/18 00:08:42;;;;;;;16.47;12.43;;;3.00;99.90;;;1.23;100.00;101261.78;5006403;27;100006;-61
2020/12/18 00:11:09;;;;;;;21.63;13.60;;;3.10;99.90;;;1.14;100.00;101261.34;5005722;27;100632;-63
2020/12/18 00:13:35;;;;;;;16.30;12.30;;;3.00;99.90;;;1.20;100.00;101264.56;5006837;27;100018;-63
2020/12/18 00:16:02;;;;;;;22.30;13.73;;;3.10;99.90;;;1.24;100.00;101267.88;5019310;27;101223;-63
2020/12/18 00:18:28;;;;;;;19.73;13.80;;;3.00;99.90;;;1.11;100.00;101265.03;5025457;27;100309;-63
2020/12/18 00:20:55;;;;;;;19.33;13.13;;;3.00;99.90;;;1.18;100.00;101270.84;5018026;27;99753;-63
2020/12/18 00:23:21;;;;;;;17.53;12.40;;;3.00;99.90;;;1.08;100.00;101265.16;5026952;27;100017;-63
2020/12/18 00:25:49;;;;;;;17.73;12.70;;;3.00;99.90;;;1.12;100.00;101258.78;5024675;27;100312;-64
2020/12/18 00:28:17;;;;;;;19.30;13.77;;;3.10;99.90;;;1.13;100.00;101257.00;5025672;27;101285;-63
2020/12/18 00:30:43;;;;;;;18.23;13.03;;;3.00;99.90;;;1.17;100.00;101262.06;5006180;27;100435;-63
2020/12/18 00:33:10;;;;;;;16.63;11.73;;;3.10;99.90;;;1.14;100.00;101264.00;5005989;27;99881;-63
2020/12/18 00:35:37;;;;;;;20.67;13.80;;;3.10;99.90;;;1.12;100.00;101263.22;5005176;27;99941;-63
2020/12/18 00:38:03;;;;;;;20.27;14.20;;;3.10;99.90;;;1.08;100.00;101260.75;5006707;27;101871;-64
2020/12/18 00:40:29;;;;;;;17.50;13.23;;;3.00;99.90;;;0.94;100.00;101262.31;5005445;27;101524;-63
2020/12/18 00:42:57;;;;;;;17.67;12.87;;;3.00;99.90;;;0.82;100.00;101262.91;5008537;27;101229;-63
2020/12/18 00:45:23;;;;;;;18.97;12.83;;;2.90;99.90;;;0.90;100.00;101263.41;5025983;27;100307;-64
2020/12/18 00:47:50;;;;;;;21.40;13.60;;;2.90;99.90;;;0.66;100.00;101263.63;5026142;27;101389;-63
2020/12/18 00:50:16;;;;;;;16.77;13.13;;;2.80;99.90;;;0.68;100.00;101266.19;5025373;27;100470;-63
2020/12/18 00:52:43;;;;;;;17.23;13.10;;;2.80;99.90;;;0.65;100.00;101268.97;5026104;27;100298;-63
2020/12/18 00:55:10;;;;;;;18.63;12.63;;;2.70;99.90;;;0.59;100.00;101272.75;5023977;27;100231;-64
2020/12/18 00:57:37;;;;;;;21.37;14.43;;;2.60;99.90;;;0.72;100.00;101273.03;5023939;27;103229;-63
2020/12/18 01:00:05;;;;;;;20.00;13.30;;;2.70;99.90;;;0.64;100.00;101268.09;5024985;27;100703;-63
2020/12/18 01:02:52;;;;;;;18.47;13.90;;;2.60;99.90;;;0.60;100.00;101270.97;5024877;27;100423;-63
2020/12/18 01:05:18;;;;;;;18.17;12.40;;;2.50;99.90;;;0.56;100.00;101280.78;5007337;27;99993;-63
2020/12/18 01:07:45;;;;;;;18.70;12.97;;;2.40;99.90;;;0.52;100.00;101283.63;5019854;27;102166;-63
2020/12/18 01:10:12;;;;;;;22.73;14.70;;;2.50;99.90;;;0.75;100.00;101286.03;5040262;27;101122;-63
2020/12/18 01:12:38;;;;;;;21.57;13.33;;;2.40;99.90;;;0.64;100.00;101291.81;5006966;27;100143;-63
2020/12/18 01:15:05;;;;;;;17.37;11.63;;;2.40;99.90;;;0.76;100.00;101287.75;5007063;27;100257;-63
2020/12/18 01:17:33;;;;;;;22.97;14.23;;;2.30;99.90;;;0.44;100.00;101281.34;5023071;27;100935;-63
2020/12/18 01:20:00;;;;;;;22.20;14.47;;;2.20;99.90;;;0.56;100.00;101287.81;5007650;27;101554;-63
2020/12/18 01:22:27;;;;;;;20.07;14.73;;;2.10;99.90;;;0.33;100.00;101288.88;5023755;27;100308;-63
2020/12/18 01:24:53;;;;;;;18.73;12.97;;;2.20;99.90;;;0.02;100.00;101288.50;5023753;27;100058;-63
2020/12/18 01:27:21;;;;;;;22.30;15.07;;;2.10;99.90;;;0.15;100.00;101293.16;5006126;27;100118;-64
2020/12/18 01:29:48;;;;;;;20.97;13.30;;;2.00;99.90;;;-0.12;100.00;101295.22;5015452;27;103132;-63
2020/12/18 01:32:16;;;;;;;20.03;12.83;;;2.10;99.90;;;-0.26;100.00;101292.34;5006530;27;100312;-63
2020/12/18 01:34:46;;;;;;;21.80;14.80;;;1.90;99.90;;;-0.01;100.00;101300.91;5006886;27;100318;-64
2020/12/18 01:37:17;;;;;;;20.13;14.37;;;2.00;99.90;;;0.01;100.00;101298.16;5006397;27;102968;-63
2020/12/18 01:39:53;;;;;;;24.03;15.50;;;2.00;99.90;;;0.03;100.00;101300.75;5006276;27;102339;-63
2020/12/18 01:42:25;;;;;;;23.30;15.57;;;1.90;99.90;;;-0.01;100.00;101289.50;5022534;27;100316;-64
2020/12/18 01:44:52;;;;;;;20.40;13.80;;;1.90;99.90;;;0.05;100.00;101286.59;5033318;27;100163;-63
2020/12/18 01:47:29;;;;;;;25.57;15.67;;;1.80;99.90;;;-0.29;100.00;101284.56;5005848;27;102276;-64
2020/12/18 01:50:00;;;;;;;18.63;13.90;;;1.70;99.90;;;-0.50;100.00;101288.97;5006490;27;103280;-62
2020/12/18 01:52:27;;;;;;;20.03;14.30;;;1.70;99.90;;;-0.62;100.00;101284.22;5010848;27;100323;-62
2020/12/18 01:55:04;;;;;;;20.17;12.77;;;1.60;99.90;;;-0.42;100.00;101281.59;5026662;27;100121;-62
2020/12/18 01:57:37;;;;;;;20.37;13.40;;;1.50;99.90;;;-0.36;100.00;101283.97;5043263;27;100685;-63
2020/12/18 02:00:08;;;;;;;22.77;15.60;;;1.40;99.90;;;-0.47;100.00;101283.56;5027567;27;101005;-62
2020/12/18 02:02:46;;;;;;;23.63;14.87;;;1.40;99.90;;;-0.41;100.00;101285.94;5008536;27;100040;-63
2020/12/18 02:05:31;;;;;;;19.03;12.87;;;1.30;99.90;;;-0.46;100.00;101295.78;5006901;27;100210;-63
2020/12/18 02:08:06;;;;;;;19.37;12.03;;;1.40;99.90;;;-0.57;100.00;101295.38;5021099;27;102420;-64
2020/12/18 02:10:51;;;;;;;19.73;13.83;;;1.30;99.90;;;-0.43;100.00;101295.66;5006116;27;100078;-63
2020/12/18 02:13:21;;;;;;;23.97;15.80;;;2.50;99.90;;;-0.41;100.00;101293.84;5006307;27;100130;-63
2020/12/18 02:15:51;;;;;;;24.07;16.50;;;1.30;99.90;;;-0.49;100.00;101297.69;5006309;27;100508;-62
2020/12/18 02:18:28;;;;;;;26.07;15.77;;;1.20;99.90;;;-0.43;100.00;101298.31;5006894;27;102514;-62
2020/12/18 02:20:55;;;;;;;24.17;15.17;;;1.10;99.90;;;-0.50;100.00;101298.63;5005046;27;103029;-62
2020/12/18 02:23:22;;;;;;;23.87;16.97;;;1.20;99.90;;;-0.31;100.00;101294.31;5005879;27;100270;-62
2020/12/18 02:26:05;;;;;;;23.10;15.57;;;1.30;99.90;;;-0.66;100.00;101294.91;5009438;27;100238;-62
2020/12/18 02:28:35;;;;;;;21.70;15.33;;;1.10;99.90;;;-0.61;100.00;101298.19;5005488;27;102734;-65
2020/12/18 02:31:02;;;;;;;23.33;14.27;;;1.00;99.90;;;-0.71;100.00;101297.72;5009733;27;100249;-64
2020/12/18 02:33:49;;;;;;;20.63;12.37;;;1.10;99.90;;;-0.60;100.00;101297.28;5005333;27;100077;-64
2020/12/18 02:36:26;;;;;;;21.10;14.43;;;1.90;99.90;;;-0.90;100.00;101294.97;5006347;27;100522;-64
2020/12/18 02:39:00;;;;;;;20.70;13.87;;;1.00;99.90;;;-1.06;100.00;101299.13;5025060;27;102826;-65
2020/12/18 02:41:27;;;;;;;22.40;15.00;;;1.00;99.90;;;-1.26;100.00;101302.53;5007525;27;100557;-63
2020/12/18 02:43:59;;;;;;;20.50;13.30;;;2.00;99.90;;;-1.31;100.00;101299.22;5006823;27;100457;-64
2020/12/18 02:46:26;;;;;;;22.63;12.77;;;0.90;99.90;;;-1.17;100.00;101303.94;5007349;27;100280;-63
2020/12/18 02:48:55;;;;;;;17.63;11.77;;;0.90;99.90;;;-1.36;100.00;101301.13;5012024;27;103080;-62
2020/12/18 02:51:31;;;;;;;17.63;12.37;;;0.70;99.90;;;-1.53;100.00;101304.41;5005575;27;102661;-62
2020/12/18 02:54:11;;;;;;;22.50;14.53;;;0.60;99.90;;;-1.22;100.00;101305.88;5007506;27;100063;-63
2020/12/18 02:56:54;;;;;;;23.63;14.00;;;0.70;99.90;;;-0.89;100.00;101301.94;5005795;27;100090;-63
2020/12/18 02:59:43;;;;;;;21.27;15.37;;;0.60;99.90;;;-0.86;100.00;101303.56;5005822;27;101473;-63
2020/12/18 03:02:10;;;;;;;22.90;15.77;;;0.70;99.90;;;-1.26;100.00;101302.53;5019507;27;101900;-62
2020/12/18 03:04:36;;;;;;;23.13;14.73;;;0.60;99.90;;;-1.57;100.00;101302.81;5007286;27;100272;-63
2020/12/18 03:07:09;;;;;;;22.57;13.93;;;0.50;99.90;;;-1.69;100.00;101303.25;5005682;27;100051;-63
2020/12/18 03:09:37;;;;;;;20.83;13.90;;;0.60;99.90;;;-1.63;100.00;101297.78;5031592;27;102901;-63
2020/12/18 03:12:04;;;;;;;20.57;13.27;;;0.50;99.90;;;-1.60;100.00;101302.06;5007850;27;100584;-62
2020/12/18 03:14:31;;;;;;;20.27;14.17;;;0.40;99.90;;;-1.57;100.00;101304.56;5015704;27;100354;-62
2020/12/18 03:17:04;;;;;;;22.97;14.13;;;0.30;99.90;;;-1.68;100.00;101312.84;5027837;27;99992;-62
2020/12/18 03:19:40;;;;;;;21.57;13.97;;;0.60;99.90;;;-1.60;100.00;101305.53;5025196;27;102948;-62
2020/12/18 03:22:20;;;;;;;22.67;14.10;;;0.30;99.90;;;-1.74;100.00;101312.22;5024834;27;102956;-62
2020/12/18 03:25:12;;;;;;;21.37;14.43;;;0.30;99.90;;;-1.73;100.00;101306.06;5009552;27;100684;-65
2020/12/18 03:27:53;;;;;;;18.23;12.80;;;0.10;99.90;;;-1.55;100.00;101302.75;5003717;27;100395;-64
2020/12/18 03:30:19;;;;;;;22.47;13.73;;;0.30;99.90;;;-1.87;100.00;101310.03;5022168;27;103387;-61
2020/12/18 03:32:50;;;;;;;20.97;13.37;;;0.30;99.90;;;-1.81;100.00;101316.81;5041353;27;102360;-62
2020/12/18 03:35:20;;;;;;;20.53;13.83;;;0.20;99.90;;;-1.85;100.00;101310.81;5012450;27;100344;-62
2020/12/18 03:37:47;;;;;;;24.80;13.97;;;0.20;99.90;;;-1.66;100.00;101318.03;5021553;27;100198;-62
2020/12/18 03:40:19;;;;;;;19.90;14.07;;;0.10;99.90;;;-1.44;100.00;101311.09;5021140;27;102715;-62
2020/12/18 03:42:51;;;;;;;25.83;14.73;;;0.20;99.90;;;-1.41;100.00;101318.00;5006789;27;100215;-62
2020/12/18 03:45:21;;;;;;;26.83;16.20;;;0.10;99.90;;;-1.48;100.00;101312.97;5035637;27;100078;-63
2020/12/18 03:47:53;;;;;;;21.03;14.83;;;0.10;99.90;;;-1.62;100.00;101317.88;5004873;27;100416;-62
2020/12/18 03:50:24;;;;;;;22.07;14.70;;;0.20;99.90;;;-1.76;100.00;101314.91;5017274;27;102899;-63
2020/12/18 03:52:55;;;;;;;23.10;14.37;;;0.00;99.90;;;-1.81;100.00;101317.66;5023710;27;101809;-64
2020/12/18 03:55:22;;;;;;;21.20;13.70;;;0.00;99.90;;;-1.86;100.00;101322.25;5026841;27;100434;-64
2020/12/18 03:58:07;;;;;;;25.00;16.13;;;0.00;99.90;;;-1.88;100.00;101315.34;5022847;27;100238;-64
2020/12/18 04:00:53;;;;;;;23.77;14.77;;;-0.10;99.90;;;-1.63;100.00;101318.78;5005529;27;100173;-64
2020/12/18 04:03:20;;;;;;;23.57;13.97;;;0.00;99.90;;;-1.72;100.00;101320.88;5023392;27;103117;-63
2020/12/18 04:05:48;;;;;;;20.97;13.70;;;0.10;99.90;;;-1.97;100.00;101324.38;5025026;27;100295;-63
2020/12/18 04:08:17;;;;;;;22.70;14.33;;;-0.10;99.90;;;-1.94;100.00;101331.28;5041745;27;100323;-63
2020/12/18 04:11:02;;;;;;;15.63;11.00;;;0.00;99.90;;;-1.91;100.00;101337.28;5005182;27;99916;-63
2020/12/18 04:13:58;;;;;;;25.40;15.50;;;-0.10;99.90;;;-2.23;100.00;101335.78;5000905;27;100448;-63
2020/12/18 04:16:36;;;;;;;21.37;13.77;;;-0.10;99.90;;;-2.27;100.00;101344.63;5025880;27;100001;-63
2020/12/18 04:19:02;;;;;;;23.83;14.00;;;-0.20;99.90;;;-2.27;100.00;101333.28;5023620;27;100250;-63
2020/12/18 04:21:29;;;;;;;19.67;12.80;;;-0.10;99.90;;;-2.38;100.00;101335.44;5024306;27;103215;-63
2020/12/18 04:24:15;;;;;;;29.13;13.37;;;-0.20;99.90;;;-2.19;100.00;101334.75;5025502;27;102351;-63
2020/12/18 04:26:43;;;;;;;18.83;13.20;;;-0.20;99.90;;;-2.19;100.00;101332.13;5007235;27;100120;-64
2020/12/18 04:29:11;;;;;;;21.93;14.50;;;0.50;99.90;;;-2.24;100.00;101341.06;5023599;27;100322;-63
2020/12/18 04:31:40;;;;;;;20.77;14.73;;;-0.30;99.90;;;-2.20;100.00;101340.88;5026014;27;101578;-63
2020/12/18 04:34:07;;;;;;;22.03;14.90;;;-0.20;99.90;;;-2.24;100.00;101341.94;5024088;27;101274;-63
2020/12/18 04:36:47;;;;;;;22.83;14.83;;;-0.30;99.90;;;-2.18;100.00;101341.69;5041301;27;100374;-64
2020/12/18 04:39:16;;;;;;;26.00;16.10;;;-0.20;99.90;;;-2.38;100.00;101345.91;5021065;27;100355;-63
2020/12/18 04:41:44;;;;;;;24.70;15.60;;;-0.20;99.90;;;-2.30;100.00;101338.63;5006760;27;103161;-64
2020/12/18 04:44:16;;;;;;;25.20;15.53;;;-0.10;99.90;;;-2.46;100.00;101342.66;5016669;27;102563;-64
2020/12/18 04:46:51;;;;;;;23.10;15.90;;;-0.20;99.90;;;-2.42;100.00;101336.41;5007390;27;100069;-64
2020/12/18 04:49:20;;;;;;;25.53;15.57;;;-0.20;99.90;;;-2.53;100.00;101344.63;5029556;27;100393;-65
2020/12/18 04:51:53;;;;;;;21.33;14.03;;;-0.20;99.90;;;-2.42;100.00;101344.28;5007157;27;101200;-64
2020/12/18 04:54:34;;;;;;;25.43;15.00;;;-0.30;99.90;;;-2.36;100.00;101338.84;5008031;27;101822;-64
2020/12/18 04:57:07;;;;;;;40.20;17.53;;;-0.30;99.90;;;-2.31;100.00;101343.03;5014924;27;100164;-64
2020/12/18 04:59:35;;;;;;;58.83;17.47;;;-0.30;99.90;;;-2.39;100.00;101347.66;5009095;27;100015;-63
2020/12/18 05:02:18;;;;;;;24.57;15.00;;;-0.40;99.90;;;-2.48;100.00;101341.88;5022528;27;100696;-64
2020/12/18 05:04:52;;;;;;;22.30;13.77;;;-0.30;99.90;;;-2.59;100.00;101350.91;5029714;27;100957;-63
2020/12/18 05:07:33;;;;;;;20.73;12.90;;;-0.40;99.90;;;-2.49;100.00;101348.88;5028620;27;99915;-63
2020/12/18 05:10:00;;;;;;;19.80;13.17;;;-0.30;99.90;;;-2.52;100.00;101354.22;5013092;27;100472;-63
2020/12/18 05:12:50;;;;;;;20.77;12.80;;;-0.80;99.90;;;-2.57;100.00;101356.97;5013355;27;100458;-64
2020/12/18 05:15:22;;;;;;;20.93;13.00;;;-0.30;99.90;;;-2.44;100.00;101360.06;5044202;27;101902;-63
2020/12/18 05:18:09;;;;;;;20.20;12.23;;;-0.30;99.90;;;-2.45;100.00;101363.59;5029501;27;100638;-63
2020/12/18 05:20:38;;;;;;;24.20;14.07;;;-0.40;99.90;;;-2.52;100.00;101367.31;5044415;27;100364;-63
2020/12/18 05:23:18;;;;;;;20.83;13.13;;;-0.30;99.90;;;-2.26;100.00;101367.31;5027124;27;102099;-64
2020/12/18 05:26:06;;;;;;;19.17;12.33;;;-0.40;99.90;;;-2.00;100.00;101363.84;5029310;27;100298;-63
2020/12/18 05:28:42;;;;;;;27.13;16.20;;;-0.40;99.90;;;-2.46;100.00;101368.88;5043032;27;100384;-63
2020/12/18 05:31:14;;;;;;;27.13;16.00;;;-0.60;99.90;;;-2.60;100.00;101372.81;5021290;27;100192;-63
2020/12/18 05:34:10;;;;;;;26.20;14.67;;;-0.50;99.90;;;-2.68;100.00;101368.69;5023858;27;100941;-63
2020/12/18 05:36:51;;;;;;;27.77;15.10;;;-0.50;99.90;;;-2.67;100.00;101368.66;5010406;27;102641;-64
2020/12/18 05:39:34;;;;;;;24.67;16.07;;;-0.50;99.90;;;-2.69;100.00;101366.97;5026797;27;100213;-63
2020/12/18 05:42:02;;;;;;;27.17;16.57;;;-0.50;99.90;;;-2.78;100.00;101378.63;5027256;27;100226;-63
2020/12/18 05:44:35;;;;;;;33.10;20.37;;;-0.60;99.90;;;-2.76;100.00;101370.72;5035491;27;100961;-63
2020/12/18 05:47:27;;;;;;;36.03;20.10;;;-0.60;99.90;;;-2.80;100.00;101369.94;5005899;27;100918;-63
2020/12/18 05:49:55;;;;;;;33.50;18.33;;;-0.30;99.90;;;-2.92;100.00;101372.94;5006530;27;100658;-63
2020/12/18 05:52:25;;;;;;;28.83;15.60;;;-0.60;99.90;;;-2.85;100.00;101371.00;5016003;27;100353;-63
2020/12/18 05:55:11;;;;;;;32.20;18.07;;;-0.60;99.90;;;-2.80;100.00;101372.56;5026714;27;100899;-63
2020/12/18 05:57:54;;;;;;;29.47;16.63;;;-0.60;99.90;;;-2.77;100.00;101371.63;5043612;27;101030;-64
2020/12/18 06:00:24;;;;;;;27.37;17.43;;;-0.70;99.90;;;-2.89;100.00;101372.84;5022119;27;100197;-63
2020/12/18 06:03:09;;;;;;;28.57;16.10;;;-0.80;99.90;;;-2.74;100.00;101376.75;5017793;27;100423;-63
2020/12/18 06:05:59;;;;;;;27.33;15.77;;;-0.70;99.90;;;-2.59;100.00;101376.25;5020841;27;100882;-63
2020/12/18 06:08:30;;;;;;;31.20;18.33;;;-0.70;99.90;;;-2.62;100.00;101382.47;5042517;27;102732;-63
2020/12/18 06:11:00;;;;;;;39.30;21.27;;;-0.80;99.90;;;-2.76;100.00;101387.28;5026316;27;100017;-63
2020/12/18 06:13:38;;;;;;;47.63;26.17;;;-0.80;99.90;;;-2.71;100.00;101381.88;5026211;27;99957;-63
2020/12/18 06:16:14;;;;;;;41.40;22.37;;;-0.90;99.90;;;-2.69;100.00;101387.94;5026819;27;100694;-63
2020/12/18 06:19:08;;;;;;;34.60;18.77;;;-0.70;99.90;;;-2.43;100.00;101389.75;5027100;27;100144;-63
2020/12/18 06:21:55;;;;;;;32.30;19.43;;;-0.90;99.90;;;-2.51;100.00;101392.63;5030200;27;100256;-63
2020/12/18 06:24:44;;;;;;;35.67;18.67;;;-0.90;99.90;;;-2.68;100.00;101395.75;5032739;27;100085;-63
2020/12/18 06:27:21;;;;;;;30.30;17.73;;;-0.90;99.90;;;-2.78;100.00;101407.44;5025208;27;103458;-64
2020/12/18 06:30:09;;;;;;;34.83;19.83;;;-0.90;99.90;;;-2.58;100.00;101404.19;5024724;27;101485;-63
2020/12/18 06:32:58;;;;;;;28.77;17.57;;;-0.90;99.90;;;-2.82;100.00;101397.94;4986865;27;100240;-63
2020/12/18 06:35:47;;;;;;;27.90;17.17;;;-0.80;99.90;;;-2.64;100.00;101401.75;5006637;27;100331;-63
2020/12/18 06:38:37;;;;;;;31.87;19.53;;;-0.90;99.90;;;-2.47;100.00;101406.50;5005023;27;101689;-62
2020/12/18 06:41:26;;;;;;;32.07;19.47;;;-0.80;99.90;;;-2.70;100.00;101412.41;5004415;27;100662;-63
2020/12/18 06:44:36;;;;;;;34.20;19.60;;;-0.80;99.90;;;-2.84;100.00;101414.63;5011372;27;100069;-63
2020/12/18 06:47:37;;;;;;;31.57;18.90;;;-0.90;99.90;;;-2.71;100.00;101415.94;4980103;28;100256;-63
2020/12/18 06:50:34;;;;;;;34.07;20.37;;;-1.00;99.90;;;-2.56;100.00;101415.47;5002396;27;100563;-62
2020/12/18 06:53:19;;;;;;;35.57;21.63;;;-1.00;99.90;;;-2.83;100.00;101416.31;5003615;27;100115;-63
2020/12/18 06:56:04;;;;;;;29.47;18.37;;;-1.00;99.90;;;-2.79;100.00;101420.56;5003050;27;100322;-63
2020/12/18 06:58:42;;;;;;;29.37;18.53;;;-0.90;99.90;;;-2.74;100.00;101423.91;5006262;27;100582;-63
2020/12/18 07:01:08;;;;;;;33.97;21.57;;;-1.00;99.90;;;-2.73;100.00;101425.63;5005502;27;101275;-63
2020/12/18 07:03:40;;;;;;;28.37;17.17;;;-0.90;99.90;;;-3.05;100.00;101419.56;5003385;27;101375;-63
2020/12/18 07:06:13;;;;;;;31.37;19.47;;;-1.00;99.90;;;-3.09;100.00;101412.69;5005011;27;100225;-63
2020/12/18 07:08:41;;;;;;;29.80;17.43;;;-0.90;99.90;;;-3.02;100.00;101422.09;5004283;27;100365;-63
2020/12/18 07:11:11;;;;;;;29.27;18.30;;;-1.00;99.90;;;-2.88;100.00;101415.59;5003055;27;103929;-63
2020/12/18 07:13:42;;;;;;;34.90;19.37;;;-0.90;99.90;;;-2.88;100.00;101415.59;5005789;27;100914;-63
2020/12/18 07:16:11;;;;;;;30.83;17.27;;;-1.00;99.90;;;-3.01;100.00;101421.22;5004870;27;100249;-64
2020/12/18 07:18:39;;;;;;;30.37;18.40;;;-0.90;99.90;;;-3.04;100.00;101418.69;5007028;27;100239;-62
2020/12/18 07:21:08;;;;;;;26.60;15.33;;;-1.00;99.90;;;-3.11;100.00;101419.75;5024370;27;100764;-62
2020/12/18 07:23:37;;;;;;;28.97;17.37;;;-1.00;99.90;;;-2.89;100.00;101409.50;5025272;27;100297;-63
2020/12/18 07:26:05;;;;;;;28.37;16.43;;;-1.00;99.90;;;-3.02;100.00;101409.03;5022242;27;100377;-63
2020/12/18 07:28:37;;;;;;;28.73;16.00;;;-1.00;99.90;;;-2.57;100.00;101404.13;5004468;27;100187;-64
2020/12/18 07:31:05;;;;;;;31.67;18.80;;;-0.90;99.90;;;-2.65;100.00;101411.38;5006179;27;101033;-62
2020/12/18 07:33:31;;;;;;;30.80;19.13;;;-1.00;99.90;;;-2.65;100.00;101406.16;5005869;27;100793;-63
2020/12/18 07:35:58;;;;;;;29.07;18.40;;;-0.80;99.90;;;-2.56;100.00;101407.63;5004929;27;100287;-63
2020/12/18 07:38:27;;;;;;;29.17;16.93;;;-0.80;99.90;;;-2.47;100.00;101409.13;5005679;27;100597;-63
2020/12/18 07:40:59;;;;;;;26.40;16.87;;;-0.50;99.90;;;-2.42;100.00;101409.81;5004674;27;100925;-63
2020/12/18 07:43:28;;;;;;;28.63;17.27;;;-0.40;99.90;;;-2.32;100.00;101412.06;5004946;27;100575;-63
2020/12/18 07:45:57;;;;;;;27.27;16.83;;;-0.20;99.90;;;-2.34;100.00;101407.78;5004249;27;100164;-64
2020/12/18 07:48:28;;;;;;;25.93;15.67;;;-0.10;99.90;;;-1.97;100.00;101410.06;5005517;27;100113;-64
2020/12/18 07:51:07;;;;;;;30.13;17.50;;;0.10;99.90;;;-1.85;100.00;101420.13;5024147;27;101781;-64
2020/12/18 07:53:35;;;;;;;23.57;15.53;;;0.30;99.90;;;-1.88;100.00;101413.25;5027598;27;100251;-63
2020/12/18 07:56:08;;;;;;;25.40;15.80;;;0.50;99.90;;;-1.73;100.00;101413.66;5025877;27;100061;-63
2020/12/18 07:58:45;;;;;;;23.00;14.60;;;0.60;99.90;;;-1.57;100.00;101406.94;5024883;27;100345;-64
2020/12/18 08:01:15;;;;;;;21.80;13.40;;;1.00;99.90;;;-1.53;100.00;101412.03;5010903;27;101293;-65
2020/12/18 08:03:50;;;;;;;20.73;13.60;;;1.30;99.90;;;-1.44;100.00;101410.84;5004452;27;100967;-65
2020/12/18 08:06:21;;;;;;;19.53;13.27;;;1.50;99.90;;;-1.14;100.00;101415.00;5003914;27;100227;-65
2020/12/18 08:08:56;;;;;;;16.80;12.50;;;1.80;99.90;;;-0.83;100.00;101412.06;5008828;27;99976;-64
2020/12/18 08:11:26;;;;;;;44.77;25.90;;;2.20;99.90;;;-0.46;100.00;101414.09;5024339;27;100711;-65
2020/12/18 08:13:56;;;;;;;26.87;15.70;;;2.40;99.90;;;-0.49;100.00;101413.38;5011887;27;100749;-64
2020/12/18 08:16:25;;;;;;;37.07;22.27;;;2.50;99.90;;;-0.27;100.00;101413.38;5026458;27;101796;-64
2020/12/18 08:18:53;;;;;;;30.60;20.60;;;2.70;99.90;;;-0.13;100.00;101405.78;5015015;27;100598;-64
2020/12/18 08:21:27;;;;;;;24.73;16.07;;;2.90;99.90;;;-0.05;100.00;101409.81;5027395;27;101391;-64
2020/12/18 08:24:02;;;;;;;26.17;17.50;;;3.00;99.90;;;0.09;100.00;101406.59;5028462;27;100668;-64
2020/12/18 08:26:35;;;;;;;23.20;14.40;;;3.20;99.90;;;0.34;100.00;101398.53;5017881;27;100073;-64
2020/12/18 08:29:04;;;;;;;22.93;13.93;;;3.50;99.90;;;0.56;100.00;101395.81;5026354;27;100200;-65
2020/12/18 08:31:36;;;;;;;20.50;14.50;;;3.70;99.90;;;0.79;100.00;101394.78;5022460;27;100739;-65
2020/12/18 08:34:09;;;;;;;20.57;14.37;;;3.90;99.90;;;1.13;100.00;101388.81;5007651;27;100681;-63
2020/12/18 08:36:44;;;;;;;23.27;14.87;;;4.00;99.90;;;1.09;100.00;101398.66;5006536;27;100459;-63
2020/12/18 08:39:12;;;;;;;23.40;14.37;;;4.40;99.90;;;1.15;100.00;101400.13;5018849;27;100182;-62
2020/12/18 08:41:48;;;;;;;22.87;14.30;;;4.40;99.90;;;1.29;100.00;101403.00;5021923;27;101075;-62
2020/12/18 08:44:19;;;;;;;23.97;14.03;;;4.70;99.90;;;1.43;100.00;101396.16;5016498;27;100682;-62
2020/12/18 08:46:47;;;;;;;18.93;13.47;;;4.90;99.90;;;1.73;100.00;101403.53;5011561;27;100261;-62
2020/12/18 08:49:20;;;;;;;22.43;13.60;;;4.90;99.90;;;1.90;100.00;101397.41;5007164;27;100335;-61
2020/12/18 08:51:49;;;;;;;19.20;13.70;;;5.20;99.90;;;2.02;100.00;101397.66;5007049;27;101532;-62
2020/12/18 08:54:28;;;;;;;22.90;15.30;;;5.30;99.90;;;2.13;100.00;101403.25;5008051;27;100556;-61
2020/12/18 08:57:15;;;;;;;23.57;14.60;;;5.50;99.90;;;2.34;100.00;101398.69;5007324;27;100315;-61
2020/12/18 09:00:09;;;;;;;21.10;14.70;;;5.60;99.90;;;2.32;100.00;101391.75;5006218;27;100227;-62
2020/12/18 09:02:38;;;;;;;18.13;13.27;;;6.00;99.90;;;2.48;100.00;101390.88;5006833;27;100036;-62
2020/12/18 09:05:10;;;;;;;24.47;15.50;;;6.20;99.90;;;2.60;100.00;101388.53;5013637;27;100547;-62
2020/12/18 09:07:39;;;;;;;19.37;12.97;;;6.30;99.90;;;2.58;100.00;101391.25;5016629;27;100128;-61
2020/12/18 09:10:05;;;;;;;18.67;12.33;;;6.50;99.90;;;2.77;100.00;101391.97;5009441;27;100216;-62
2020/12/18 09:12:38;;;;;;;19.27;13.90;;;6.50;99.90;;;2.81;100.00;101388.25;5006678;27;101539;-61
2020/12/18 09:15:19;;;;;;;24.53;15.27;;;6.70;99.90;;;3.02;100.00;101390.66;5007059;27;100246;-62
2020/12/18 09:17:46;;;;;;;22.97;14.40;;;7.00;99.90;;;3.14;100.00;101390.00;5027499;27;100331;-62
2020/12/18 09:20:24;;;;;;;19.67;14.53;;;7.00;99.90;;;3.42;100.00;101390.19;5027221;27;100292;-63
2020/12/18 09:23:00;;;;;;;18.80;12.47;;;7.20;99.90;;;3.36;100.00;101384.38;5026692;27;101150;-62
2020/12/18 09:25:28;;;;;;;20.13;12.80;;;7.40;99.90;;;3.52;100.00;101383.44;5026320;27;100172;-61
2020/12/18 09:27:57;;;;;;;18.37;12.03;;;8.30;99.90;;;3.50;100.00;101373.88;5026982;27;100218;-61
2020/12/18 09:30:29;;;;;;;19.10;13.10;;;7.70;99.90;;;3.57;100.00;101380.53;5027069;27;100114;-63
2020/12/18 09:33:26;;;;;;;20.00;13.70;;;7.90;99.90;;;3.74;100.00;101377.75;5027078;27;100861;-62
2020/12/18 09:35:55;;;;;;;18.57;13.20;;;7.70;99.90;;;3.81;100.00;101380.94;5012822;27;101256;-62
2020/12/18 09:38:24;;;;;;;16.43;11.50;;;8.00;99.90;;;3.88;100.00;101380.47;5007111;27;100063;-62
2020/12/18 09:40:51;;;;;;;17.40;11.97;;;8.30;99.90;;;3.92;100.00;101373.22;5006241;27;100378;-62
2020/12/18 09:43:18;;;;;;;16.33;11.43;;;8.20;99.90;;;4.15;100.00;101380.66;5004039;27;101356;-61
2020/12/18 09:45:45;;;;;;;19.23;12.20;;;8.40;99.90;;;4.32;100.00;101380.53;5006690;27;100955;-62
2020/12/18 09:48:12;;;;;;;18.23;12.70;;;8.40;99.90;;;4.28;100.00;101378.13;5006384;27;99964;-64
2020/12/18 09:50:39;;;;;;;17.27;11.57;;;8.80;99.90;;;4.46;100.00;101376.16;5004056;27;100256;-62
2020/12/18 09:53:06;;;;;;;22.43;14.80;;;9.00;99.90;;;4.58;100.00;101378.94;5005803;27;100587;-62
2020/12/18 09:55:33;;;;;;;18.47;12.83;;;9.10;99.90;;;4.62;100.00;101369.00;5006743;27;101874;-63
2020/12/18 09:58:02;;;;;;;17.50;12.40;;;9.30;99.90;;;4.74;100.00;101372.69;5010854;27;99980;-63
2020/12/18 10:00:29;;;;;;;20.10;14.27;;;9.50;99.90;;;4.70;100.00;101364.91;5012767;27;100089;-62
2020/12/18 10:02:55;;;;;;;14.33;11.60;;;9.50;99.90;;;4.76;100.00;101352.25;5011535;27;101661;-63
2020/12/18 10:05:24;;;;;;;17.30;9.50;;;9.90;99.90;;;4.83;100.00;101356.22;5025548;27;101046;-63
2020/12/18 10:07:51;;;;;;;18.73;12.03;;;9.90;99.90;;;4.95;100.00;101350.13;5024513;27;100435;-63
2020/12/18 10:10:17;;;;;;;15.57;11.03;;;9.80;99.90;;;5.14;100.00;101348.03;5027078;27;100106;-64
2020/12/18 10:12:44;;;;;;;13.53;9.53;;;10.00;99.90;;;5.21;100.00;101337.88;5026109;27;100845;-63
2020/12/18 10:15:11;;;;;;;15.17;10.10;;;10.20;99.90;;;5.37;100.00;101341.25;5025444;27;101352;-63
2020/12/18 10:17:37;;;;;;;15.20;10.30;;;10.30;99.90;;;5.34;100.00;101341.44;5025717;27;100220;-63